Bg Felixstowe — V2BR7 — position and weather

sailwx.info

Track history (hours):
 
Tides and Currents Weather Stations Pressure Air Temp Water Temp Dewpoint Dewpoint Depression Visibility Wind Speed Wind Dir Waves Ship Positions

Bg Felixstowe

Last reported at 2015-May-23 06:06 UTC. Time now 2015-May-25 15:38 UTC.
Position N 25°25' W 080°00'.

Length 139 m; draft 6 m.

Type: Ship. MMSI: 304906000.

Date/timePositionNaut miles runAvg speedWind from/ knotsBaromVisibWave heightAir tempDewpointWater temp
2015-May-23 06:06N 25°25' W 080°00'815.1
2015-May-23 05:33N 25°34' W 080°00'1312.9
2015-May-23 04:33N 25°46' W 080°05'5 4.0
2015-May-23 03:22N 25°46' W 080°10'0 0.0
2015-May-23 02:27N 25°46' W 080°10'0 0.0
2015-May-23 01:21N 25°46' W 080°10'0 0.0
2015-May-23 00:32N 25°46' W 080°10'0 0.0
2015-May-22 23:23N 25°46' W 080°10'0 0.0
2015-May-22 22:31N 25°46' W 080°10'0 0.0
2015-May-22 21:22N 25°46' W 080°10'0 0.0
2015-May-22 20:22N 25°46' W 080°10'0 0.0
2015-May-22 19:24N 25°46' W 080°10'0 0.0
2015-May-22 18:21N 25°46' W 080°10'0 0.0
2015-May-22 17:32N 25°46' W 080°10'0 0.0
2015-May-22 16:33N 25°46' W 080°10'0 0.0
2015-May-22 15:31N 25°46' W 080°10'0 0.0
2015-May-22 14:31N 25°46' W 080°10'0 0.0
2015-May-22 13:22N 25°46' W 080°10'0 0.0
2015-May-22 12:15N 25°46' W 080°10'0 0.0
2015-May-22 10:32N 25°46' W 080°10'0 0.0
2015-May-22 09:23N 25°46' W 080°10'0 0.0
2015-May-22 08:16N 25°46' W 080°10'0 0.0
2015-May-22 07:25N 25°46' W 080°10'0 0.0
2015-May-22 06:31N 25°46' W 080°10'0 0.0
2015-May-22 05:30N 25°46' W 080°10'0 0.0
2015-May-22 04:24N 25°46' W 080°10'0 0.0
2015-May-22 03:29N 25°46' W 080°10'0 0.0
2015-May-22 02:23N 25°46' W 080°10'0 0.0
2015-May-22 01:28N 25°46' W 080°10'0 0.0
2015-May-22 00:28N 25°46' W 080°10'0 0.0
2015-May-21 23:22N 25°46' W 080°10'0 0.0
2015-May-21 22:27N 25°46' W 080°10'0 0.0
2015-May-21 21:33N 25°46' W 080°10'0 0.0
2015-May-21 20:32N 25°46' W 080°10'0 0.0
2015-May-21 19:26N 25°46' W 080°10'0 0.0
2015-May-21 17:22N 25°46' W 080°10'0 0.0
2015-May-21 16:33N 25°46' W 080°10'0 0.0
2015-May-21 15:09N 25°46' W 080°10'0 0.0
2015-May-21 14:33N 25°46' W 080°10'0 0.0
2015-May-21 13:29N 25°46' W 080°10'0 0.0
2015-May-21 12:17N 25°46' W 080°10'0 0.0
2015-May-21 11:32N 25°46' W 080°10'7 6.8
2015-May-21 10:33N 25°45' W 080°03'1514.9
2015-May-21 09:33N 25°31' W 080°00'  
2015-May-16 06:23N 25°30' W 080°00'1113.4
2015-May-16 05:34N 25°41' W 080°01'9 8.7
2015-May-16 04:29N 25°46' W 080°10'0 0.2
2015-May-16 02:15N 25°46' W 080°10'0 0.0
2015-May-16 01:11N 25°46' W 080°10'0 0.0
2015-May-15 12:30N 25°46' W 080°10'0 0.0
2015-May-15 11:23N 25°46' W 080°10'0 0.0
2015-May-15 09:28N 25°46' W 080°10'0 0.0
2015-May-15 07:15N 25°46' W 080°10'0 0.0
2015-May-15 06:09N 25°46' W 080°10'0 0.0
2015-May-15 05:33N 25°46' W 080°10'0 0.0
2015-May-15 04:11N 25°46' W 080°10'0 0.0
2015-May-15 03:20N 25°46' W 080°10'0 0.0
2015-May-15 02:07N 25°46' W 080°10'0 0.0
2015-May-15 01:22N 25°46' W 080°10'0 0.0
2015-May-15 00:30N 25°46' W 080°10'0 0.0
2015-May-14 23:24N 25°46' W 080°10'0 0.0
2015-May-14 22:33N 25°46' W 080°10'0 0.0
2015-May-14 21:11N 25°46' W 080°10'0 0.0
2015-May-14 18:32N 25°46' W 080°10'5 5.0
2015-May-14 17:33N 25°46' W 080°05'1615.5
2015-May-14 16:33N 25°31' W 079°59'  
Track history (hours):
 
Tides and Currents Weather Stations Pressure Air Temp Water Temp Dewpoint Dewpoint Depression Visibility Wind Speed Wind Dir Waves Ship Positions

Bg Felixstowe

Last reported at 2015-May-23 06:06 UTC. Time now 2015-May-25 15:38 UTC.
Position N 25°25' W 080°00'.

Length 139 m; draft 6 m.

Type: Ship. MMSI: 304906000.

Date/timePositionNaut miles runAvg speedWind from/ knotsBaromVisibWave heightAir tempDewpointWater temp
2015-May-23 06:06N 25°25' W 080°00'815.1
2015-May-23 05:33N 25°34' W 080°00'1312.9
2015-May-23 04:33N 25°46' W 080°05'5 4.0
2015-May-23 03:22N 25°46' W 080°10'0 0.0
2015-May-23 02:27N 25°46' W 080°10'0 0.0
2015-May-23 01:21N 25°46' W 080°10'0 0.0
2015-May-23 00:32N 25°46' W 080°10'0 0.0
2015-May-22 23:23N 25°46' W 080°10'0 0.0
2015-May-22 22:31N 25°46' W 080°10'0 0.0
2015-May-22 21:22N 25°46' W 080°10'0 0.0
2015-May-22 20:22N 25°46' W 080°10'0 0.0
2015-May-22 19:24N 25°46' W 080°10'0 0.0
2015-May-22 18:21N 25°46' W 080°10'0 0.0
2015-May-22 17:32N 25°46' W 080°10'0 0.0
2015-May-22 16:33N 25°46' W 080°10'0 0.0
2015-May-22 15:31N 25°46' W 080°10'0 0.0
2015-May-22 14:31N 25°46' W 080°10'0 0.0
2015-May-22 13:22N 25°46' W 080°10'0 0.0
2015-May-22 12:15N 25°46' W 080°10'0 0.0
2015-May-22 10:32N 25°46' W 080°10'0 0.0
2015-May-22 09:23N 25°46' W 080°10'0 0.0
2015-May-22 08:16N 25°46' W 080°10'0 0.0
2015-May-22 07:25N 25°46' W 080°10'0 0.0
2015-May-22 06:31N 25°46' W 080°10'0 0.0
2015-May-22 05:30N 25°46' W 080°10'0 0.0
2015-May-22 04:24N 25°46' W 080°10'0 0.0
2015-May-22 03:29N 25°46' W 080°10'0 0.0
2015-May-22 02:23N 25°46' W 080°10'0 0.0
2015-May-22 01:28N 25°46' W 080°10'0 0.0
2015-May-22 00:28N 25°46' W 080°10'0 0.0
2015-May-21 23:22N 25°46' W 080°10'0 0.0
2015-May-21 22:27N 25°46' W 080°10'0 0.0
2015-May-21 21:33N 25°46' W 080°10'0 0.0
2015-May-21 20:32N 25°46' W 080°10'0 0.0
2015-May-21 19:26N 25°46' W 080°10'0 0.0
2015-May-21 17:22N 25°46' W 080°10'0 0.0
2015-May-21 16:33N 25°46' W 080°10'0 0.0
2015-May-21 15:09N 25°46' W 080°10'0 0.0
2015-May-21 14:33N 25°46' W 080°10'0 0.0
2015-May-21 13:29N 25°46' W 080°10'0 0.0
2015-May-21 12:17N 25°46' W 080°10'0 0.0
2015-May-21 11:32N 25°46' W 080°10'7 6.8
2015-May-21 10:33N 25°45' W 080°03'1514.9
2015-May-21 09:33N 25°31' W 080°00'  
2015-May-16 06:23N 25°30' W 080°00'1113.4
2015-May-16 05:34N 25°41' W 080°01'9 8.7
2015-May-16 04:29N 25°46' W 080°10'0 0.2
2015-May-16 02:15N 25°46' W 080°10'0 0.0
2015-May-16 01:11N 25°46' W 080°10'0 0.0
2015-May-15 12:30N 25°46' W 080°10'0 0.0
2015-May-15 11:23N 25°46' W 080°10'0 0.0
2015-May-15 09:28N 25°46' W 080°10'0 0.0
2015-May-15 07:15N 25°46' W 080°10'0 0.0
2015-May-15 06:09N 25°46' W 080°10'0 0.0
2015-May-15 05:33N 25°46' W 080°10'0 0.0
2015-May-15 04:11N 25°46' W 080°10'0 0.0
2015-May-15 03:20N 25°46' W 080°10'0 0.0
2015-May-15 02:07N 25°46' W 080°10'0 0.0
2015-May-15 01:22N 25°46' W 080°10'0 0.0
2015-May-15 00:30N 25°46' W 080°10'0 0.0
2015-May-14 23:24N 25°46' W 080°10'0 0.0
2015-May-14 22:33N 25°46' W 080°10'0 0.0
2015-May-14 21:11N 25°46' W 080°10'0 0.0
2015-May-14 18:32N 25°46' W 080°10'5 5.0
2015-May-14 17:33N 25°46' W 080°05'1615.5
2015-May-14 16:33N 25°31' W 079°59'  

Dump ship's entire track history